createdAt,value
2019-01-22T00:02:39.538Z,42.67
2019-01-22T00:05:30.077Z,54.53
2019-01-22T00:08:18.892Z,54.63
2019-01-22T00:11:07.689Z,46.28
2019-01-22T00:13:56.502Z,48.43
2019-01-22T00:16:45.300Z,45.67
2019-01-22T00:19:34.115Z,57.13
2019-01-22T00:22:22.918Z,43.02
2019-01-22T00:25:32.643Z,52.85
2019-01-22T00:28:21.530Z,51.80
2019-01-22T00:31:03.135Z,51.92
2019-01-22T00:33:52.247Z,52.80
2019-01-22T00:36:41.110Z,45.40
2019-01-22T00:39:29.924Z,45.40
2019-01-22T00:42:18.723Z,45.78
2019-01-22T00:48:22.818Z,44.10
2019-01-22T00:51:11.791Z,43.68
2019-01-22T00:54:00.612Z,51.37
2019-01-22T00:56:49.623Z,51.48
2019-01-22T00:59:38.687Z,44.33
2019-01-22T01:08:38.409Z,47.20
2019-01-22T01:11:27.305Z,45.60
2019-01-22T01:14:15.742Z,42.10
2019-01-22T01:17:04.585Z,46.60
2019-01-22T01:20:12.404Z,47.95
2019-01-22T01:23:01.278Z,51.77
2019-01-22T01:25:50.076Z,47.03
2019-01-22T01:28:31.617Z,53.90
2019-01-22T01:31:20.406Z,52.85
2019-01-22T01:34:09.292Z,50.73
2019-01-22T01:36:58.084Z,42.75
2019-01-22T01:39:46.901Z,44.83
2019-01-22T01:42:35.703Z,45.10
2019-01-22T01:45:24.518Z,42.85
2019-01-22T01:48:13.312Z,43.27
2019-01-22T01:51:02.132Z,49.42
2019-01-22T01:53:50.927Z,57.77
2019-01-22T01:56:39.740Z,44.95
2019-01-22T01:59:30.278Z,54.63
2019-01-22T02:02:19.085Z,60.92
2019-01-22T02:05:09.712Z,45.15
2019-01-22T02:07:58.507Z,46.13
2019-01-22T02:10:47.329Z,39.70
2019-01-22T02:17:25.515Z,39.75
2019-01-22T02:20:35.512Z,42.83
2019-01-22T02:24:04.737Z,41.10
2019-01-22T02:27:32.224Z,50.88
2019-01-22T02:30:32.004Z,49.25
2019-01-22T02:33:41.750Z,43.80
2019-01-22T02:37:09.255Z,42.70
2019-01-22T02:40:18.956Z,40.80
2019-01-22T02:43:28.689Z,39.77
2019-01-22T02:46:38.398Z,47.25
2019-01-22T02:49:48.170Z,45.67
2019-01-22T02:52:57.896Z,50.83
2019-01-22T02:56:07.593Z,53.08
2019-01-22T02:59:35.115Z,50.15
2019-01-22T03:02:44.829Z,56.42
2019-01-22T03:06:12.339Z,51.92
2019-01-22T03:09:39.871Z,54.17
2019-01-22T03:12:49.596Z,56.83
2019-01-22T03:16:18.845Z,59.05
2019-01-22T03:19:46.333Z,46.40
2019-01-22T03:22:56.123Z,56.23
2019-01-22T03:26:05.862Z,50.40
2019-01-22T03:29:33.397Z,50.20
2019-01-22T03:32:43.123Z,49.67
2019-01-22T03:36:10.628Z,43.78
2019-01-22T03:39:20.335Z,43.58
2019-01-22T03:42:48.171Z,44.13
2019-01-22T03:45:57.895Z,52.80
2019-01-22T03:49:25.626Z,39.03
2019-01-22T03:52:35.357Z,48.10
2019-01-22T03:56:02.843Z,37.73
2019-01-22T03:58:51.650Z,42.13
2019-01-22T04:01:40.455Z,46.00
2019-01-22T04:04:29.269Z,43.63
2019-01-22T04:07:18.066Z,40.17
2019-01-22T04:10:29.515Z,40.28
2019-01-22T04:13:18.393Z,44.27
2019-01-22T04:16:07.640Z,43.87
2019-01-22T04:18:56.442Z,45.38
2019-01-22T04:21:45.272Z,49.40
2019-01-22T04:24:54.963Z,48.02
2019-01-22T04:28:04.741Z,44.97
2019-01-22T04:31:13.405Z,55.25
2019-01-22T04:34:23.130Z,50.00
2019-01-22T04:37:50.647Z,49.38
2019-01-22T04:41:00.666Z,106.40
2019-01-22T04:44:10.399Z,55.38
2019-01-22T04:47:20.135Z,56.80
2019-01-22T04:50:47.615Z,51.90
2019-01-22T04:53:57.348Z,52.13
2019-01-22T04:57:07.052Z,52.93
2019-01-22T05:00:18.545Z,55.43
2019-01-22T05:03:28.277Z,57.60
2019-01-22T05:06:55.772Z,56.25
2019-01-22T05:10:23.266Z,61.58
2019-01-22T05:13:33.036Z,52.20
2019-01-22T05:16:42.790Z,63.68
2019-01-22T05:19:52.515Z,48.77
2019-01-22T05:23:20.027Z,57.30
2019-01-22T05:26:29.799Z,49.40
2019-01-22T05:29:41.262Z,43.63
2019-01-22T05:32:26.895Z,55.23
2019-01-22T05:35:54.408Z,43.38
2019-01-22T05:42:52.239Z,59.83
2019-01-22T05:46:01.988Z,58.75
2019-01-22T05:49:11.876Z,58.37
2019-01-22T05:52:39.374Z,44.33
2019-01-22T05:55:49.093Z,50.58
2019-01-22T05:59:16.578Z,46.70
2019-01-22T06:02:26.304Z,48.13
2019-01-22T06:06:00.772Z,43.25
2019-01-22T06:09:10.532Z,47.30
2019-01-22T06:12:38.047Z,50.65
2019-01-22T06:16:05.595Z,53.80
2019-01-22T06:19:33.076Z,65.20
2019-01-22T06:23:00.585Z,61.75
2019-01-22T06:26:10.338Z,63.05
2019-01-22T06:29:20.128Z,79.03
2019-01-22T06:32:06.988Z,99.80
2019-01-22T06:35:34.506Z,72.25
2019-01-22T06:39:01.998Z,72.70
2019-01-22T06:45:28.336Z,106.80
2019-01-22T06:48:38.062Z,135.13
2019-01-22T06:51:47.813Z,91.63
2019-01-22T06:55:15.324Z,67.10
2019-01-22T06:58:42.812Z,69.80
2019-01-22T07:01:52.571Z,72.15
2019-01-22T07:05:02.318Z,80.22
2019-01-22T07:08:12.039Z,81.57
2019-01-22T07:11:21.744Z,97.82
2019-01-22T07:14:31.518Z,71.60
2019-01-22T07:17:41.233Z,87.57
2019-01-22T07:21:08.748Z,77.62
2019-01-22T07:24:18.508Z,95.63
2019-01-22T07:27:28.278Z,139.60
2019-01-22T07:30:55.767Z,143.95
2019-01-22T07:34:03.824Z,109.60
2019-01-22T07:37:13.573Z,133.87
2019-01-22T07:40:41.083Z,125.15
2019-01-22T07:44:08.583Z,138.30
2019-01-22T07:47:36.085Z,78.47
2019-01-22T07:50:45.794Z,132.63
2019-01-22T07:53:55.561Z,102.67
2019-01-22T07:57:23.063Z,98.85
2019-01-22T08:00:32.778Z,84.37
2019-01-22T08:04:01.543Z,77.27
2019-01-22T08:07:30.699Z,81.10
2019-01-22T08:10:40.403Z,104.25
2019-01-22T08:14:07.907Z,88.57
2019-01-22T08:17:35.527Z,95.28
2019-01-22T08:21:03.047Z,109.57
2019-01-22T08:24:12.811Z,102.03
2019-01-22T08:27:22.534Z,109.12
2019-01-22T08:30:50.068Z,101.62
2019-01-22T08:33:59.844Z,86.17
2019-01-22T08:37:09.548Z,82.25
2019-01-22T08:40:19.266Z,103.92
2019-01-22T08:43:46.752Z,104.30
2019-01-22T08:46:57.752Z,88.70
2019-01-22T08:50:25.404Z,89.03
2019-01-22T08:53:35.144Z,97.07
2019-01-22T08:57:02.638Z,81.63
2019-01-22T09:00:30.157Z,92.50
2019-01-22T09:03:39.856Z,78.97
2019-01-22T09:07:07.356Z,83.42
2019-01-22T09:10:17.077Z,85.10
2019-01-22T09:13:26.836Z,99.45
2019-01-22T09:16:54.346Z,127.47
2019-01-22T09:20:21.834Z,100.92
2019-01-22T09:23:31.555Z,98.73
2019-01-22T09:26:41.300Z,105.27
2019-01-22T09:29:51.291Z,97.17
2019-01-22T09:32:35.710Z,95.33
2019-01-22T09:35:47.570Z,93.12
2019-01-22T09:38:38.034Z,88.60
2019-01-22T09:41:26.844Z,95.17
2019-01-22T09:44:15.640Z,82.83
2019-01-22T09:50:19.666Z,72.97
2019-01-22T09:53:08.758Z,113.83
2019-01-22T09:56:00.864Z,119.60
2019-01-22T09:58:48.101Z,91.80
2019-01-22T10:01:36.899Z,152.45
2019-01-22T10:04:25.730Z,151.60
2019-01-22T10:07:14.541Z,133.20
2019-01-22T10:16:17.468Z,118.93
2019-01-22T10:19:25.356Z,113.40
2019-01-22T10:22:14.183Z,109.65
2019-01-22T10:25:02.970Z,75.15
2019-01-22T10:27:51.786Z,103.60
2019-01-22T10:30:40.582Z,90.42
2019-01-22T10:33:22.674Z,79.23
2019-01-22T10:36:11.460Z,92.20
2019-01-22T10:39:00.283Z,106.60
2019-01-22T10:41:49.083Z,88.50
2019-01-22T10:44:37.895Z,89.07
2019-01-22T10:47:26.699Z,87.10
2019-01-22T10:50:36.461Z,91.37
2019-01-22T10:53:25.242Z,107.63
2019-01-22T10:56:14.079Z,106.37
2019-01-22T10:59:03.041Z,97.03
2019-01-22T11:02:10.881Z,91.25
2019-01-22T11:04:59.680Z,80.45
2019-01-22T11:07:48.493Z,76.93
2019-01-22T11:10:37.295Z,86.40
2019-01-22T11:13:26.122Z,69.90
2019-01-22T11:16:15.162Z,75.35
2019-01-22T11:19:05.460Z,79.03
2019-01-22T11:21:54.575Z,75.83
2019-01-22T11:24:44.802Z,60.15
2019-01-22T11:27:33.610Z,65.10
2019-01-22T11:30:43.337Z,69.75
2019-01-22T11:33:33.556Z,62.87
2019-01-22T11:36:15.558Z,59.23
2019-01-22T11:39:25.289Z,59.30
2019-01-22T11:42:14.106Z,60.20
2019-01-22T11:45:02.928Z,66.95
2019-01-22T11:47:51.733Z,72.07
2019-01-22T11:50:40.550Z,59.40
2019-01-22T11:53:29.375Z,58.67
2019-01-22T11:56:18.171Z,61.35
2019-01-22T12:02:01.762Z,64.97
2019-01-22T12:04:50.600Z,56.00
2019-01-22T12:07:39.407Z,62.70
2019-01-22T12:10:28.226Z,58.35
2019-01-22T12:13:17.040Z,53.13
2019-01-22T12:16:05.967Z,57.78
2019-01-22T12:18:54.791Z,60.13
2019-01-22T12:21:43.607Z,57.53
2019-01-22T12:27:41.813Z,49.87
2019-01-22T12:30:51.523Z,53.20
2019-01-22T12:33:40.334Z,47.77
2019-01-22T12:36:22.255Z,54.38
2019-01-22T12:39:11.070Z,60.88
2019-01-22T12:41:59.869Z,69.65
2019-01-22T12:44:48.685Z,60.33
2019-01-22T12:47:37.491Z,57.10
2019-01-22T12:53:45.683Z,59.73
2019-01-22T12:56:32.257Z,54.27
2019-01-22T12:59:21.080Z,63.30
2019-01-22T13:02:10.095Z,55.67
2019-01-22T13:04:58.959Z,55.58
2019-01-22T13:07:48.102Z,60.57
2019-01-22T13:10:36.915Z,58.05
2019-01-22T13:13:25.786Z,70.30
2019-01-22T13:16:14.576Z,67.78
2019-01-22T13:19:03.396Z,65.10
2019-01-22T13:22:11.234Z,64.00
2019-01-22T13:25:00.099Z,66.90
2019-01-22T13:27:50.561Z,58.30
2019-01-22T13:33:33.261Z,54.67
2019-01-22T13:36:14.760Z,61.68
2019-01-22T13:42:31.982Z,57.33
2019-01-22T13:45:41.699Z,54.23
2019-01-22T13:48:30.531Z,53.57
2019-01-22T13:51:19.326Z,51.35
2019-01-22T13:54:08.488Z,48.50
2019-01-22T13:56:57.306Z,55.58
2019-01-22T13:59:46.123Z,50.98
2019-01-22T14:02:34.949Z,45.47
2019-01-22T14:05:23.805Z,54.93
2019-01-22T14:08:12.618Z,50.20
2019-01-22T14:11:01.421Z,45.63
2019-01-22T14:13:50.906Z,53.02
2019-01-22T14:16:40.747Z,45.63
2019-01-22T14:19:29.579Z,50.23
2019-01-22T14:22:10.895Z,51.63
2019-01-22T14:24:59.991Z,49.18
2019-01-22T14:27:48.799Z,48.50
2019-01-22T14:30:58.520Z,43.48
2019-01-22T14:33:47.334Z,40.35
2019-01-22T14:36:36.144Z,40.35
2019-01-22T14:39:26.750Z,42.03
2019-01-22T14:42:15.500Z,40.67
2019-01-22T14:48:19.538Z,38.08
2019-01-22T14:51:08.376Z,48.28
2019-01-22T14:53:57.191Z,44.77
2019-01-22T14:56:45.993Z,43.85
2019-01-22T14:59:34.830Z,39.03
2019-01-22T15:02:23.632Z,40.95
2019-01-22T15:05:12.867Z,36.68
2019-01-22T15:08:01.663Z,42.10
2019-01-22T15:10:50.483Z,37.20
2019-01-22T15:13:39.286Z,43.30
2019-01-22T15:16:28.114Z,43.28
2019-01-22T15:22:17.773Z,48.33
2019-01-22T15:25:41.651Z,37.08
2019-01-22T15:28:18.019Z,41.30
2019-01-22T15:34:14.570Z,40.30
2019-01-22T15:37:03.364Z,51.23
2019-01-22T15:39:56.336Z,42.98
2019-01-22T15:42:42.738Z,43.73
2019-01-22T15:45:31.555Z,43.83
2019-01-22T15:48:20.387Z,48.43
2019-01-22T15:54:04.948Z,39.00
2019-01-22T15:56:53.744Z,38.98
2019-01-22T15:59:42.838Z,46.13
2019-01-22T16:02:31.648Z,51.50
2019-01-22T16:08:35.375Z,39.67
2019-01-22T16:11:24.197Z,45.50
2019-01-22T16:17:20.758Z,43.05
2019-01-22T16:20:02.634Z,39.45
2019-01-22T16:22:51.806Z,41.90
2019-01-22T16:25:40.603Z,45.80
2019-01-22T16:28:29.424Z,47.03
2019-01-22T16:31:18.221Z,40.03
2019-01-22T16:34:07.031Z,43.87
2019-01-22T16:36:55.847Z,42.83
2019-01-22T16:39:44.647Z,47.13
2019-01-22T16:42:33.462Z,43.77
2019-01-22T16:45:43.188Z,49.10
2019-01-22T16:48:32.004Z,38.47
2019-01-22T16:51:21.087Z,42.38
2019-01-22T16:54:10.066Z,37.67
2019-01-22T16:57:00.551Z,42.50
2019-01-22T16:59:49.424Z,37.75
2019-01-22T17:02:38.242Z,46.70
2019-01-22T17:05:47.643Z,41.85
2019-01-22T17:08:36.668Z,39.47
2019-01-22T17:11:25.487Z,40.35
2019-01-22T17:14:14.288Z,36.50
2019-01-22T17:17:03.113Z,40.90
2019-01-22T17:19:45.052Z,36.10
2019-01-22T17:22:33.879Z,39.63
2019-01-22T17:25:22.668Z,36.90
2019-01-22T17:28:11.495Z,39.03
2019-01-22T17:36:55.236Z,37.53
2019-01-22T17:39:44.021Z,37.23
2019-01-22T17:42:32.844Z,34.75
2019-01-22T17:45:21.637Z,38.00
2019-01-22T17:48:10.537Z,40.50
2019-01-22T17:50:59.394Z,40.48
2019-01-22T17:53:48.178Z,46.10
2019-01-22T17:56:36.977Z,38.67
2019-01-22T17:59:25.794Z,44.10
2019-01-22T18:02:14.594Z,35.55
2019-01-22T18:08:18.651Z,35.43
2019-01-22T18:11:07.457Z,36.70
2019-01-22T18:13:56.274Z,39.70
2019-01-22T18:16:45.077Z,40.23
2019-01-22T18:19:33.940Z,43.90
2019-01-22T18:22:22.742Z,41.55
2019-01-22T18:25:11.968Z,38.60
2019-01-22T18:28:20.224Z,43.93
2019-01-22T18:31:28.406Z,44.63
2019-01-22T18:34:17.222Z,34.83
2019-01-22T18:37:06.218Z,37.30
2019-01-22T18:39:55.037Z,41.15
2019-01-22T18:42:43.994Z,41.02
2019-01-22T18:45:33.160Z,47.95
2019-01-22T18:48:22.084Z,43.50
2019-01-22T18:51:10.932Z,42.33
2019-01-22T19:00:02.473Z,40.10
2019-01-22T19:05:59.974Z,43.25
2019-01-22T19:08:48.946Z,32.60
2019-01-22T19:11:56.915Z,41.83
2019-01-22T19:14:46.241Z,43.58
2019-01-22T19:20:51.086Z,48.28
2019-01-22T19:26:55.228Z,40.58
2019-01-22T19:30:16.134Z,45.92
2019-01-22T19:36:43.600Z,48.28
2019-01-22T19:43:36.793Z,39.00
2019-01-22T19:50:02.243Z,48.68
2019-01-22T19:56:53.285Z,55.12
2019-01-22T20:03:34.866Z,47.23
2019-01-22T20:06:05.801Z,43.15
2019-01-22T20:19:15.786Z,35.73
2019-01-22T20:35:02.975Z,42.50
2019-01-22T20:38:13.704Z,44.00
2019-01-22T20:44:39.636Z,43.87
2019-01-22T20:54:06.424Z,41.02
2019-01-22T20:57:17.138Z,42.53
2019-01-22T21:00:41.736Z,37.98
2019-01-22T21:03:52.213Z,43.05
2019-01-22T21:06:21.045Z,41.08
2019-01-22T21:15:19.591Z,45.70
2019-01-22T21:18:27.573Z,42.50
2019-01-22T21:21:35.699Z,41.25
2019-01-22T21:24:43.714Z,53.77
2019-01-22T21:27:32.611Z,41.18
2019-01-22T21:30:42.308Z,48.40
2019-01-22T21:33:31.126Z,42.07
2019-01-22T21:36:19.945Z,40.75
2019-01-22T21:39:08.756Z,49.30
2019-01-22T21:41:57.582Z,41.88
2019-01-22T21:44:53.275Z,43.35
2019-01-22T21:47:42.100Z,38.07
2019-01-22T21:50:30.913Z,43.80
2019-01-22T21:53:19.791Z,45.00
2019-01-22T21:56:08.606Z,43.98
2019-01-22T21:58:57.419Z,48.07
2019-01-22T22:01:46.293Z,42.55
2019-01-22T22:04:35.116Z,41.47
2019-01-22T22:07:16.714Z,42.03
2019-01-22T22:10:26.424Z,44.77
2019-01-22T22:13:15.237Z,47.70
2019-01-22T22:19:32.477Z,52.37
2019-01-22T22:25:29.050Z,51.63
2019-01-22T22:28:17.855Z,47.48
2019-01-22T22:31:06.667Z,44.50
2019-01-22T22:33:55.472Z,45.27
2019-01-22T22:36:44.301Z,48.25
2019-01-22T22:39:33.095Z,44.53
2019-01-22T22:42:21.918Z,53.00
2019-01-22T22:45:31.629Z,55.28
2019-01-22T22:48:20.455Z,42.47
2019-01-22T22:51:09.274Z,58.28
2019-01-22T22:53:58.091Z,51.40
2019-01-22T22:56:46.926Z,46.92
2019-01-22T22:59:35.709Z,49.13
2019-01-22T23:02:24.593Z,47.80
2019-01-22T23:05:06.576Z,47.10
2019-01-22T23:07:55.756Z,53.73
2019-01-22T23:10:44.557Z,68.72
2019-01-22T23:13:33.387Z,52.90
2019-01-22T23:16:22.258Z,55.60
2019-01-22T23:19:11.070Z,56.57
2019-01-22T23:21:59.869Z,50.70
2019-01-22T23:24:48.691Z,55.75
2019-01-22T23:27:37.500Z,48.37
2019-01-22T23:30:26.387Z,48.55
2019-01-22T23:33:15.478Z,47.00
2019-01-22T23:39:19.238Z,54.47
2019-01-22T23:42:08.030Z,45.08
2019-01-22T23:44:56.851Z,59.13
2019-01-22T23:47:45.662Z,50.27
2019-01-22T23:50:34.488Z,52.35
2019-01-22T23:53:23.280Z,50.67
2019-01-22T23:56:12.099Z,55.65
2019-01-22T23:59:00.898Z,48.70
